Time;durP1;ratioP1;P1;durP2;ratioP2;P2;SDS_P1;SDS_P2;PMS_P1;PMS_P2;Temp;Humidity;BMP_temperature;BMP_pressure;BME280_temperature;BME280_humidity;BME280_pressure;Samples;Min_cycle;Max_cycle;Signal;HPM_P1;HPM_P2
2022/09/08 00:01:35;;;;;;;1999.90;999.90;;;;;;;-144.65;100.00;64500.88;5032684;28;20065;-76
2022/09/08 00:04:04;;;;;;;1999.90;999.90;;;;;;;-144.65;100.00;64500.88;5030153;28;20077;-76
2022/09/08 00:06:32;;;;;;;1999.90;999.90;;;;;;;-144.65;100.00;64500.88;5030033;28;20390;-76
2022/09/08 00:08:58;;;;;;;1999.90;999.90;;;;;;;-144.65;100.00;64500.88;5032419;28;20076;-78
2022/09/08 00:11:28;;;;;;;1999.90;999.90;;;;;;;-144.65;100.00;64500.88;5032896;28;20068;-78
2022/09/08 00:13:56;;;;;;;1999.90;999.90;;;;;;;-144.65;100.00;64500.88;5033874;28;20013;-77
2022/09/08 00:16:22;;;;;;;1999.90;999.90;;;;;;;-144.65;100.00;64500.88;5041951;28;20030;-76
2022/09/08 00:18:50;;;;;;;1999.90;999.90;;;;;;;-144.65;100.00;64500.88;5034249;28;20017;-77
2022/09/08 00:21:17;;;;;;;1999.90;999.90;;;;;;;-144.65;100.00;64500.88;5015963;28;20053;-77
2022/09/08 00:23:42;;;;;;;1999.90;999.90;;;;;;;-144.65;100.00;64500.88;5033763;28;20540;-79
2022/09/08 00:26:08;;;;;;;1999.90;999.90;;;;;;;-144.65;100.00;64500.88;5037038;28;20108;-79
2022/09/08 00:28:33;;;;;;;1999.90;999.90;;;;;;;-144.65;100.00;64500.88;5017423;28;20390;-77
2022/09/08 00:30:59;;;;;;;1999.90;999.90;;;;;;;-144.65;100.00;64500.88;5033588;28;20138;-77
2022/09/08 00:33:25;;;;;;;1999.90;999.90;;;;;;;-144.65;100.00;64500.88;5033887;28;20749;-77
2022/09/08 00:35:51;;;;;;;1999.90;999.90;;;;;;;-144.65;100.00;64500.88;5033617;28;20076;-78
2022/09/08 00:38:19;;;;;;;1999.90;999.90;;;;;;;-144.65;100.00;64500.88;5033196;28;20048;-77
2022/09/08 00:40:46;;;;;;;1999.90;999.90;;;;;;;-144.65;100.00;64500.88;5033434;28;20063;-77
2022/09/08 00:43:42;;;;;;;1999.90;999.90;;;;;;;-144.65;100.00;64500.88;5033083;28;20113;-77
2022/09/08 00:46:12;;;;;;;1999.90;999.90;;;;;;;-144.65;100.00;64500.88;5033449;28;20371;-77
2022/09/08 00:48:53;;;;;;;1999.90;999.90;;;;;;;-144.65;100.00;64500.88;5033663;28;20033;-77
2022/09/08 00:51:19;;;;;;;1999.90;999.90;;;;;;;-144.65;100.00;64500.88;5015160;28;20379;-77
2022/09/08 00:53:47;;;;;;;1999.90;999.90;;;;;;;-144.65;100.00;64500.88;5033045;28;20025;-77
2022/09/08 00:56:13;;;;;;;1999.90;999.90;;;;;;;-144.65;100.00;64500.88;5032358;28;20433;-77
2022/09/08 00:58:40;;;;;;;1999.90;999.90;;;;;;;-144.65;100.00;64500.88;5032504;28;20085;-77
2022/09/08 01:01:06;;;;;;;1999.90;999.90;;;;;;;-144.65;100.00;64500.88;5033207;28;20026;-77
2022/09/08 01:03:32;;;;;;;1999.90;999.90;;;;;;;-144.65;100.00;64500.88;5032968;28;20517;-77
2022/09/08 01:06:14;;;;;;;1999.90;999.90;;;;;;;-144.65;100.00;64500.88;5032660;28;20034;-76
2022/09/08 01:14:52;;;;;;;1999.90;999.90;;;;;;;-144.65;100.00;64500.88;5032598;28;20040;-77
2022/09/08 01:17:18;;;;;;;1999.90;999.90;;;;;;;-144.65;100.00;64500.88;5031992;28;20040;-77
2022/09/08 01:19:47;;;;;;;1999.90;999.90;;;;;;;-144.65;100.00;64500.88;5033418;28;20401;-76
2022/09/08 01:22:31;;;;;;;1999.90;999.90;;;;;;;-144.65;100.00;64500.88;5034891;28;20034;-76
2022/09/08 01:25:15;;;;;;;1999.90;999.90;;;;;;;-144.65;100.00;64500.88;5037282;28;20033;-76
2022/09/08 01:27:40;;;;;;;1999.90;999.90;;;;;;;-144.65;100.00;64500.88;5035648;28;20504;-77
2022/09/08 01:30:10;;;;;;;1999.90;999.90;;;;;;;-144.65;100.00;64500.88;5033116;28;20029;-78
2022/09/08 01:32:39;;;;;;;1999.90;999.90;;;;;;;-144.65;100.00;64500.88;5015601;28;20032;-77
2022/09/08 01:35:06;;;;;;;1999.90;999.90;;;;;;;-144.65;100.00;64500.88;5032386;28;20037;-77
2022/09/08 01:37:31;;;;;;;1999.90;999.90;;;;;;;-144.65;100.00;64500.88;5032608;28;20032;-77
2022/09/08 01:39:57;;;;;;;1999.90;999.90;;;;;;;-144.65;100.00;64500.88;5032518;28;20026;-78
2022/09/08 01:42:24;;;;;;;1999.90;999.90;;;;;;;-144.65;100.00;64500.88;5014660;28;20544;-77
2022/09/08 01:44:49;;;;;;;1999.90;999.90;;;;;;;-144.65;100.00;64500.88;5032983;28;20033;-77
2022/09/08 01:47:14;;;;;;;1999.90;999.90;;;;;;;-144.65;100.00;64500.88;5032427;28;20095;-77
2022/09/08 01:49:40;;;;;;;1999.90;999.90;;;;;;;-144.65;100.00;64500.88;5032814;28;20445;-77
2022/09/08 01:52:06;;;;;;;1999.90;999.90;;;;;;;-144.65;100.00;64500.88;5031739;28;20104;-77
2022/09/08 01:54:31;;;;;;;1999.90;999.90;;;;;;;-144.65;100.00;64500.88;5032231;28;20029;-79
2022/09/08 01:56:57;;;;;;;1999.90;999.90;;;;;;;-144.65;100.00;64500.88;5032892;28;20057;-78
2022/09/08 01:59:24;;;;;;;1999.90;999.90;;;;;;;-144.65;100.00;64500.88;5014968;28;20122;-77
2022/09/08 02:01:49;;;;;;;1999.90;999.90;;;;;;;-144.65;100.00;64500.88;5034435;28;20033;-77
2022/09/08 02:04:15;;;;;;;1999.90;999.90;;;;;;;-144.65;100.00;64500.88;5036800;28;20571;-78
2022/09/08 02:06:41;;;;;;;1999.90;999.90;;;;;;;-144.65;100.00;64500.88;5039964;28;20017;-78
2022/09/08 02:09:06;;;;;;;1999.90;999.90;;;;;;;-144.65;100.00;64500.88;5033137;28;20095;-78
2022/09/08 02:11:32;;;;;;;1999.90;999.90;;;;;;;-144.65;100.00;64500.88;5034044;28;20073;-79
2022/09/08 02:13:58;;;;;;;1999.90;999.90;;;;;;;-144.65;100.00;64500.88;5037844;28;20049;-77
2022/09/08 02:16:24;;;;;;;1999.90;999.90;;;;;;;-144.65;100.00;64500.88;5033214;28;20029;-77
2022/09/08 02:18:53;;;;;;;1999.90;999.90;;;;;;;-144.65;100.00;64500.88;5032637;28;20038;-77
2022/09/08 02:21:19;;;;;;;1999.90;999.90;;;;;;;-144.65;100.00;64500.88;5035052;28;20021;-77
2022/09/08 02:23:47;;;;;;;1999.90;999.90;;;;;;;-144.65;100.00;64500.88;5036416;28;20103;-78
2022/09/08 02:26:18;;;;;;;1999.90;999.90;;;;;;;-144.65;100.00;64500.88;5037783;28;20396;-77
2022/09/08 02:28:44;;;;;;;1999.90;999.90;;;;;;;-144.65;100.00;64500.88;5037875;28;20124;-79
2022/09/08 02:31:10;;;;;;;1999.90;999.90;;;;;;;-144.65;100.00;64500.88;5038423;28;20028;-76
2022/09/08 02:33:36;;;;;;;1999.90;999.90;;;;;;;-144.65;100.00;64500.88;5038719;28;20556;-78
2022/09/08 02:36:02;;;;;;;1999.90;999.90;;;;;;;-144.65;100.00;64500.88;5038000;28;20045;-79
2022/09/08 02:38:27;;;;;;;1999.90;999.90;;;;;;;-144.65;100.00;64500.88;5038139;28;20024;-77
2022/09/08 02:40:53;;;;;;;1999.90;999.90;;;;;;;-144.65;100.00;64500.88;5035876;28;20041;-76
2022/09/08 02:43:20;;;;;;;1999.90;999.90;;;;;;;-144.65;100.00;64500.88;5031428;28;20116;-77
2022/09/08 02:45:46;;;;;;;1999.90;999.90;;;;;;;-144.65;100.00;64500.88;5031619;28;20029;-76
2022/09/08 02:48:11;;;;;;;1999.90;999.90;;;;;;;-144.65;100.00;64500.88;5031406;28;20057;-76
2022/09/08 02:50:38;;;;;;;1999.90;999.90;;;;;;;-144.65;100.00;64500.88;5031270;28;20037;-77
2022/09/08 02:53:03;;;;;;;1999.90;999.90;;;;;;;-144.65;100.00;64500.88;5031280;28;20383;-77
2022/09/08 02:55:28;;;;;;;1999.90;999.90;;;;;;;-144.65;100.00;64500.88;5031417;28;20021;-77
2022/09/08 02:57:53;;;;;;;1999.90;999.90;;;;;;;-144.65;100.00;64500.88;5031118;28;20029;-77
2022/09/08 03:00:19;;;;;;;1999.90;999.90;;;;;;;-144.65;100.00;64500.88;5031145;28;20481;-77
2022/09/08 03:02:46;;;;;;;1999.90;999.90;;;;;;;-144.65;100.00;64500.88;5031562;28;20030;-77
2022/09/08 03:05:12;;;;;;;1999.90;999.90;;;;;;;-144.65;100.00;64500.88;5031296;28;20025;-77
2022/09/08 03:07:37;;;;;;;1999.90;999.90;;;;;;;-144.65;100.00;64500.88;5031017;28;20029;-77
2022/09/08 03:10:05;;;;;;;1999.90;999.90;;;;;;;-144.65;100.00;64500.88;5031322;28;20592;-76
2022/09/08 03:12:30;;;;;;;1999.90;999.90;;;;;;;-144.65;100.00;64500.88;5031007;28;20049;-76
2022/09/08 03:14:56;;;;;;;1999.90;999.90;;;;;;;-144.65;100.00;64500.88;5030958;28;20116;-77
2022/09/08 03:17:21;;;;;;;1999.90;999.90;;;;;;;-144.65;100.00;64500.88;5012977;28;20049;-77
2022/09/08 03:19:47;;;;;;;1999.90;999.90;;;;;;;-144.65;100.00;64500.88;5031027;28;20046;-77
2022/09/08 03:22:12;;;;;;;1999.90;999.90;;;;;;;-144.65;100.00;64500.88;5034551;28;20124;-77
2022/09/08 03:24:38;;;;;;;1999.90;999.90;;;;;;;-144.65;100.00;64500.88;5034421;28;20498;-77
2022/09/08 03:27:04;;;;;;;1999.90;999.90;;;;;;;-144.65;100.00;64500.88;5034529;28;20010;-77
2022/09/08 03:29:30;;;;;;;1999.90;999.90;;;;;;;-144.65;100.00;64500.88;5029353;28;20497;-76
2022/09/08 03:31:56;;;;;;;1999.90;999.90;;;;;;;-144.65;100.00;64500.88;5025013;28;20029;-77
2022/09/08 03:34:22;;;;;;;1999.90;999.90;;;;;;;-144.65;100.00;64500.88;5034201;28;20021;-77
2022/09/08 03:36:47;;;;;;;1999.90;999.90;;;;;;;-144.65;100.00;64500.88;5016801;28;20061;-77
2022/09/08 03:39:12;;;;;;;1999.90;999.90;;;;;;;-144.65;100.00;64500.88;5014316;28;20398;-76
2022/09/08 03:41:38;;;;;;;1999.90;999.90;;;;;;;-144.65;100.00;64500.88;5014227;28;20413;-77
2022/09/08 03:44:03;;;;;;;1999.90;999.90;;;;;;;-144.65;100.00;64500.88;5014082;28;20464;-76
2022/09/08 03:46:29;;;;;;;1999.90;999.90;;;;;;;-144.65;100.00;64500.88;5013917;28;20446;-78
2022/09/08 03:48:54;;;;;;;1999.90;999.90;;;;;;;-144.65;100.00;64500.88;5030875;28;20740;-77
2022/09/08 03:51:24;;;;;;;1999.90;999.90;;;;;;;-144.65;100.00;64500.88;5034572;28;20041;-77
2022/09/08 03:53:50;;;;;;;1999.90;999.90;;;;;;;-144.65;100.00;64500.88;5038397;28;20025;-76
2022/09/08 03:56:16;;;;;;;1999.90;999.90;;;;;;;-144.65;100.00;64500.88;5044995;28;20065;-77
2022/09/08 03:58:44;;;;;;;1999.90;999.90;;;;;;;-144.65;100.00;64500.88;5035410;28;21388;-77
2022/09/08 04:01:15;;;;;;;1999.90;999.90;;;;;;;-144.65;100.00;64500.88;5035163;28;20040;-77
2022/09/08 04:03:42;;;;;;;1999.90;999.90;;;;;;;-144.65;100.00;64500.88;5034334;28;20010;-77
2022/09/08 04:06:08;;;;;;;1999.90;999.90;;;;;;;-144.65;100.00;64500.88;5033636;28;20394;-77
2022/09/08 04:08:33;;;;;;;1999.90;999.90;;;;;;;-144.65;100.00;64500.88;5015558;28;20038;-76
2022/09/08 04:11:00;;;;;;;1999.90;999.90;;;;;;;-144.65;100.00;64500.88;5033362;28;20073;-77
2022/09/08 04:13:25;;;;;;;1999.90;999.90;;;;;;;-144.65;100.00;64500.88;5033417;28;20021;-77
2022/09/08 04:15:50;;;;;;;1999.90;999.90;;;;;;;-144.65;100.00;64500.88;5033707;28;20018;-75
2022/09/08 04:18:16;;;;;;;1999.90;999.90;;;;;;;-144.65;100.00;64500.88;5034458;28;20030;-79
2022/09/08 04:20:41;;;;;;;1999.90;999.90;;;;;;;-144.65;100.00;64500.88;5041968;28;20029;-79
2022/09/08 04:23:07;;;;;;;1999.90;999.90;;;;;;;-144.65;100.00;64500.88;5047503;28;20026;-78
2022/09/08 04:25:32;;;;;;;1999.90;999.90;;;;;;;-144.65;100.00;64500.88;5025477;28;20056;-79
2022/09/08 04:27:58;;;;;;;1999.90;999.90;;;;;;;-144.65;100.00;64500.88;5028063;28;20145;-79
2022/09/08 04:30:24;;;;;;;1999.90;999.90;;;;;;;-144.65;100.00;64500.88;5026490;28;20046;-81
2022/09/08 04:32:49;;;;;;;1999.90;999.90;;;;;;;-144.65;100.00;64500.88;5021840;28;20041;-74
2022/09/08 04:35:15;;;;;;;1999.90;999.90;;;;;;;-144.65;100.00;64500.88;5012631;28;20030;-73
2022/09/08 04:37:40;;;;;;;1999.90;999.90;;;;;;;-144.65;100.00;64500.88;4995104;28;20030;-74
2022/09/08 04:40:07;;;;;;;1999.90;999.90;;;;;;;-144.65;100.00;64500.88;5012528;28;20026;-73
2022/09/08 04:42:33;;;;;;;1999.90;999.90;;;;;;;-144.65;100.00;64500.88;5012562;28;20022;-74
2022/09/08 04:44:59;;;;;;;1999.90;999.90;;;;;;;-144.65;100.00;64500.88;5012374;28;20026;-74
2022/09/08 04:47:25;;;;;;;1999.90;999.90;;;;;;;-144.65;100.00;64500.88;5012355;28;20501;-73
2022/09/08 04:49:52;;;;;;;1999.90;999.90;;;;;;;-144.65;100.00;64500.88;5012259;28;20034;-76
2022/09/08 04:52:20;;;;;;;1999.90;999.90;;;;;;;-144.65;100.00;64500.88;5012369;28;20509;-73
2022/09/08 04:54:46;;;;;;;1999.90;999.90;;;;;;;-144.65;100.00;64500.88;5012398;28;20030;-74
2022/09/08 04:57:12;;;;;;;1999.90;999.90;;;;;;;-144.65;100.00;64500.88;4994841;28;20382;-73
2022/09/08 04:59:37;;;;;;;1999.90;999.90;;;;;;;-144.65;100.00;64500.88;5012270;28;20092;-72
2022/09/08 05:02:03;;;;;;;1999.90;999.90;;;;;;;-144.65;100.00;64500.88;5012513;28;20034;-73
2022/09/08 05:04:28;;;;;;;1999.90;999.90;;;;;;;-144.65;100.00;64500.88;5012364;28;20069;-73
2022/09/08 05:06:53;;;;;;;1999.90;999.90;;;;;;;-144.65;100.00;64500.88;5012192;28;20026;-74
2022/09/08 05:09:19;;;;;;;1999.90;999.90;;;;;;;-144.65;100.00;64500.88;5012343;28;20466;-73
2022/09/08 05:11:44;;;;;;;1999.90;999.90;;;;;;;-144.65;100.00;64500.88;5012294;28;20096;-73
2022/09/08 05:14:10;;;;;;;1999.90;999.90;;;;;;;-144.65;100.00;64500.88;5015416;28;20469;-72
2022/09/08 05:16:35;;;;;;;1999.90;999.90;;;;;;;-144.65;100.00;64500.88;5031285;28;20037;-78
2022/09/08 05:19:04;;;;;;;1999.90;999.90;;;;;;;-144.65;100.00;64500.88;5013055;28;20025;-74
2022/09/08 05:21:32;;;;;;;1999.90;999.90;;;;;;;-144.65;100.00;64500.88;5030853;28;20109;-75
2022/09/08 05:24:00;;;;;;;1999.90;999.90;;;;;;;-144.65;100.00;64500.88;5030759;28;20030;-74
2022/09/08 05:26:26;;;;;;;1999.90;999.90;;;;;;;-144.65;100.00;64500.88;5030929;28;20026;-75
2022/09/08 05:28:52;;;;;;;1999.90;999.90;;;;;;;-144.65;100.00;64500.88;5031400;28;20536;-76
2022/09/08 05:31:20;;;;;;;1999.90;999.90;;;;;;;-144.65;100.00;64500.88;5032862;28;20072;-75
2022/09/08 05:33:46;;;;;;;1999.90;999.90;;;;;;;-144.65;100.00;64500.88;5028535;28;20435;-75
2022/09/08 05:36:21;;;;;;;1999.90;999.90;;;;;;;-144.65;100.00;64500.88;5013436;28;20065;-75
2022/09/08 05:38:47;;;;;;;1999.90;999.90;;;;;;;-144.65;100.00;64500.88;5031845;28;20033;-78
2022/09/08 05:41:14;;;;;;;1999.90;999.90;;;;;;;-144.65;100.00;64500.88;5031443;28;20048;-74
2022/09/08 05:43:39;;;;;;;1999.90;999.90;;;;;;;-144.65;100.00;64500.88;5039947;28;20040;-75
2022/09/08 05:46:05;;;;;;;1999.90;999.90;;;;;;;-144.65;100.00;64500.88;5054353;28;20025;-76
2022/09/08 05:48:31;;;;;;;1999.90;999.90;;;;;;;-144.65;100.00;64500.88;5051043;28;20028;-74
2022/09/08 05:50:57;;;;;;;1999.90;999.90;;;;;;;-144.65;100.00;64500.88;5050350;28;20493;-75
2022/09/08 05:53:22;;;;;;;1999.90;999.90;;;;;;;-144.65;100.00;64500.88;5049677;28;20187;-76
2022/09/08 05:55:59;;;;;;;1999.90;999.90;;;;;;;-144.65;100.00;64500.88;5050311;28;20179;-76
2022/09/08 05:58:26;;;;;;;1999.90;999.90;;;;;;;-144.65;100.00;64500.88;5050767;28;20037;-73
2022/09/08 06:01:00;;;;;;;1999.90;999.90;;;;;;;-144.65;100.00;64500.88;5050809;28;20120;-75
2022/09/08 06:03:26;;;;;;;1999.90;999.90;;;;;;;-144.65;100.00;64500.88;5051104;28;20485;-76
2022/09/08 06:05:53;;;;;;;1999.90;999.90;;;;;;;-144.65;100.00;64500.88;5050597;28;20056;-76
2022/09/08 06:08:21;;;;;;;1999.90;999.90;;;;;;;-144.65;100.00;64500.88;5050361;28;20520;-76
2022/09/08 06:10:52;;;;;;;1999.90;999.90;;;;;;;-144.65;100.00;64500.88;5050597;28;20048;-75
2022/09/08 06:13:21;;;;;;;1999.90;999.90;;;;;;;-144.65;100.00;64500.88;5050441;28;20489;-76
2022/09/08 06:15:47;;;;;;;1999.90;999.90;;;;;;;-144.65;100.00;64500.88;5050535;28;20504;-76
2022/09/08 06:18:12;;;;;;;1999.90;999.90;;;;;;;-144.65;100.00;64500.88;5050357;28;20021;-76
2022/09/08 06:20:38;;;;;;;1999.90;999.90;;;;;;;-144.65;100.00;64500.88;5050201;28;20428;-76
2022/09/08 06:23:03;;;;;;;1999.90;999.90;;;;;;;-144.65;100.00;64500.88;5032321;28;20075;-76
2022/09/08 06:25:28;;;;;;;1999.90;999.90;;;;;;;-144.65;100.00;64500.88;5050752;28;20032;-76
2022/09/08 06:28:03;;;;;;;1999.90;999.90;;;;;;;-144.65;100.00;64500.88;5050313;28;20496;-76
2022/09/08 06:30:29;;;;;;;1999.90;999.90;;;;;;;-144.65;100.00;64500.88;5050634;28;20021;-77
2022/09/08 06:33:02;;;;;;;1999.90;999.90;;;;;;;-144.65;100.00;64500.88;5050957;28;20074;-75
2022/09/08 06:35:33;;;;;;;1999.90;999.90;;;;;;;-144.65;100.00;64500.88;5050657;28;20025;-77
2022/09/08 06:38:14;;;;;;;1999.90;999.90;;;;;;;-144.65;100.00;64500.88;5050617;28;20500;-76
2022/09/08 06:40:48;;;;;;;1999.90;999.90;;;;;;;-144.65;100.00;64500.88;5050541;28;20079;-76
2022/09/08 06:43:27;;;;;;;1999.90;999.90;;;;;;;-144.65;100.00;64500.88;5050331;28;20013;-76
2022/09/08 06:45:55;;;;;;;1999.90;999.90;;;;;;;-144.65;100.00;64500.88;5050132;28;20051;-76
2022/09/08 06:48:31;;;;;;;1999.90;999.90;;;;;;;-144.65;100.00;64500.88;5050193;28;20021;-76
2022/09/08 06:51:08;;;;;;;1999.90;999.90;;;;;;;-144.65;100.00;64500.88;5050365;28;20504;-76
2022/09/08 06:54:01;;;;;;;1999.90;999.90;;;;;;;-144.65;100.00;64500.88;5050078;28;20040;-75
2022/09/08 06:56:27;;;;;;;1999.90;999.90;;;;;;;-144.65;100.00;64500.88;5035203;28;20087;-77
2022/09/08 06:59:00;;;;;;;1999.90;999.90;;;;;;;-144.65;100.00;64500.88;5054434;28;20029;-76
2022/09/08 07:01:40;;;;;;;1999.90;999.90;;;;;;;-144.65;100.00;64500.88;5054740;28;20270;-75
2022/09/08 07:04:05;;;;;;;1999.90;999.90;;;;;;;-144.65;100.00;64500.88;5037472;28;20438;-75
2022/09/08 07:06:45;;;;;;;1999.90;999.90;;;;;;;-144.65;100.00;64500.88;5054508;28;20151;-76
2022/09/08 07:09:17;;;;;;;1999.90;999.90;;;;;;;-144.65;100.00;64500.88;5054388;28;20281;-76
2022/09/08 07:11:45;;;;;;;1999.90;999.90;;;;;;;-144.65;100.00;64500.88;5053956;28;20033;-76
2022/09/08 07:14:41;;;;;;;1999.90;999.90;;;;;;;-144.65;100.00;64500.88;5054077;28;20358;-76
2022/09/08 07:17:09;;;;;;;;;;;;;;;-144.65;100.00;64500.88;5054493;28;20040;-76
2022/09/08 07:19:53;;;;;;;1999.90;999.90;;;;;;;-144.65;100.00;64500.88;5053918;28;20007;-76
2022/09/08 07:22:37;;;;;;;1999.90;999.90;;;;;;;-144.65;100.00;64500.88;5054060;28;20056;-76
2022/09/08 07:25:23;;;;;;;1999.90;999.90;;;;;;;-144.65;100.00;64500.88;5053910;28;20040;-76
2022/09/08 07:27:52;;;;;;;;;;;;;;;-144.65;100.00;64500.88;5054234;28;20028;-77
2022/09/08 07:30:18;;;;;;;1999.90;999.90;;;;;;;-144.65;100.00;64500.88;5054315;28;20305;-76
2022/09/08 07:32:53;;;;;;;1999.90;999.90;;;;;;;-144.65;100.00;64500.88;5057039;28;20021;-76
2022/09/08 07:35:37;;;;;;;;;;;;;;;-144.65;100.00;64500.88;5054200;28;20021;-76
2022/09/08 07:38:10;;;;;;;1999.90;999.90;;;;;;;-144.65;100.00;64500.88;5053639;28;20389;-76
2022/09/08 07:40:51;;;;;;;1999.90;999.90;;;;;;;-144.65;100.00;64500.88;5053691;28;20056;-76
2022/09/08 07:43:17;;;;;;;1999.90;999.90;;;;;;;-144.65;100.00;64500.88;5053515;28;20016;-76
2022/09/08 07:45:42;;;;;;;1999.90;999.90;;;;;;;-144.65;100.00;64500.88;5053612;28;20033;-76
2022/09/08 07:48:13;;;;;;;1999.90;999.90;;;;;;;-144.65;100.00;64500.88;5053273;28;20068;-75
2022/09/08 07:50:54;;;;;;;1999.90;999.90;;;;;;;-144.65;100.00;64500.88;5053503;28;20268;-76
2022/09/08 07:53:40;;;;;;;1999.90;999.90;;;;;;;-144.65;100.00;64500.88;5053368;28;20060;-76
2022/09/08 07:56:22;;;;;;;1999.90;999.90;;;;;;;-144.65;100.00;64500.88;5053496;28;20025;-75
2022/09/08 07:59:10;;;;;;;1999.90;999.90;;;;;;;-144.65;100.00;64500.88;5035110;28;20496;-75
2022/09/08 08:01:51;;;;;;;1999.90;999.90;;;;;;;-144.65;100.00;64500.88;5053333;28;20032;-76
2022/09/08 08:04:43;;;;;;;1999.90;999.90;;;;;;;-144.65;100.00;64500.88;5053824;28;20032;-76
2022/09/08 08:07:14;;;;;;;1999.90;999.90;;;;;;;-144.65;100.00;64500.88;5052579;28;20485;-76
2022/09/08 08:09:58;;;;;;;1999.90;999.90;;;;;;;-144.65;100.00;64500.88;5053190;28;20029;-75
2022/09/08 08:13:03;;;;;;;1999.90;999.90;;;;;;;-144.65;100.00;64500.88;5053172;28;20421;-75
2022/09/08 08:15:45;;;;;;;1999.90;999.90;;;;;;;-144.65;100.00;64500.88;5052897;28;20044;-76
2022/09/08 08:18:54;;;;;;;1999.90;999.90;;;;;;;-144.65;100.00;64500.88;5052909;28;20074;-75
2022/09/08 08:21:38;;;;;;;1999.90;999.90;;;;;;;-144.65;100.00;64500.88;5052949;28;20059;-75
2022/09/08 08:24:25;;;;;;;1999.90;999.90;;;;;;;-144.65;100.00;64500.88;5052827;28;20040;-75
2022/09/08 08:27:02;;;;;;;1999.90;999.90;;;;;;;-144.65;100.00;64500.88;5035126;28;20021;-75
2022/09/08 08:29:54;;;;;;;1999.90;999.90;;;;;;;-144.65;100.00;64500.88;5035937;28;20041;-76
2022/09/08 08:32:23;;;;;;;1999.90;999.90;;;;;;;-144.65;100.00;64500.88;5005118;28;20094;-75
2022/09/08 08:34:55;;;;;;;1999.90;999.90;;;;;;;-144.65;100.00;64500.88;5035044;28;20029;-76
2022/09/08 08:37:28;;;;;;;1999.90;999.90;;;;;;;-144.65;100.00;64500.88;5052681;28;20485;-75
2022/09/08 08:39:53;;;;;;;1999.90;999.90;;;;;;;-144.65;100.00;64500.88;5052793;28;20025;-76
2022/09/08 08:42:47;;;;;;;1999.90;999.90;;;;;;;-144.65;100.00;64500.88;5052738;28;20031;-75
2022/09/08 08:45:24;;;;;;;1999.90;999.90;;;;;;;-144.65;100.00;64500.88;5033861;28;20026;-75
2022/09/08 08:48:35;;;;;;;1999.90;999.90;;;;;;;-144.65;100.00;64500.88;5030135;28;20029;-75
2022/09/08 08:51:25;;;;;;;1999.90;999.90;;;;;;;-144.65;100.00;64500.88;5030537;28;20112;-74
2022/09/08 08:54:15;;;;;;;1999.90;999.90;;;;;;;-144.65;100.00;64500.88;5030958;28;20029;-75
2022/09/08 08:56:46;;;;;;;1999.90;999.90;;;;;;;-144.65;100.00;64500.88;5031918;28;20029;-74
2022/09/08 08:59:29;;;;;;;1999.90;999.90;;;;;;;-144.65;100.00;64500.88;5031126;28;20024;-74
2022/09/08 09:02:38;;;;;;;1999.90;999.90;;;;;;;-144.65;100.00;64500.88;5030986;28;20030;-75
2022/09/08 09:05:17;;;;;;;1999.90;999.90;;;;;;;-144.65;100.00;64500.88;5030325;28;20046;-75
2022/09/08 09:08:01;;;;;;;1999.90;999.90;;;;;;;-144.65;100.00;64500.88;5029509;28;20087;-75
2022/09/08 09:10:49;;;;;;;1999.90;999.90;;;;;;;-144.65;100.00;64500.88;5023307;28;20033;-74
2022/09/08 09:13:31;;;;;;;1999.90;999.90;;;;;;;-144.65;100.00;64500.88;5030744;28;20394;-74
2022/09/08 09:16:09;;;;;;;1999.90;999.90;;;;;;;-144.65;100.00;64500.88;5013813;28;20506;-75
2022/09/08 09:18:37;;;;;;;1999.90;999.90;;;;;;;-144.65;100.00;64500.88;5031637;28;20708;-73
2022/09/08 09:21:33;;;;;;;1999.90;999.90;;;;;;;-144.65;100.00;64500.88;5033563;28;20037;-75
2022/09/08 09:24:36;;;;;;;1999.90;999.90;;;;;;;-144.65;100.00;64500.88;5031352;28;20075;-74
2022/09/08 09:27:12;;;;;;;1999.90;999.90;;;;;;;-144.65;100.00;64500.88;5026515;28;20041;-73
2022/09/08 09:29:38;;;;;;;1999.90;999.90;;;;;;;-144.65;100.00;64500.88;5012998;28;20037;-74
2022/09/08 09:32:29;;;;;;;1999.90;999.90;;;;;;;-144.65;100.00;64500.88;5030411;28;20450;-74
2022/09/08 09:35:07;;;;;;;1999.90;999.90;;;;;;;-144.65;100.00;64500.88;5030635;28;20029;-74
2022/09/08 09:37:59;;;;;;;1999.90;999.90;;;;;;;-144.65;100.00;64500.88;5017675;28;20040;-74
2022/09/08 09:40:38;;;;;;;1999.90;999.90;;;;;;;-144.65;100.00;64500.88;5031228;28;20045;-73
2022/09/08 09:43:24;;;;;;;1999.90;999.90;;;;;;;-144.65;100.00;64500.88;5029550;28;20096;-74
2022/09/08 09:46:04;;;;;;;1999.90;999.90;;;;;;;-144.65;100.00;64500.88;5030760;28;20095;-74
2022/09/08 09:49:12;;;;;;;1999.90;999.90;;;;;;;-144.65;100.00;64500.88;5031142;28;20057;-74
2022/09/08 09:52:08;;;;;;;1999.90;999.90;;;;;;;-144.65;100.00;64500.88;5004172;28;20553;-73
2022/09/08 09:55:06;;;;;;;1999.90;999.90;;;;;;;-144.65;100.00;64500.88;5026182;28;20042;-76
2022/09/08 09:57:57;;;;;;;1999.90;999.90;;;;;;;-144.65;100.00;64500.88;5026743;28;20028;-73
2022/09/08 10:00:31;;;;;;;1999.90;999.90;;;;;;;-144.65;100.00;64500.88;5020827;28;20117;-74
2022/09/08 10:03:30;;;;;;;1999.90;999.90;;;;;;;-144.65;100.00;64500.88;5009373;28;20025;-73
2022/09/08 10:06:22;;;;;;;1999.90;999.90;;;;;;;-144.65;100.00;64500.88;5028575;28;20482;-73
2022/09/08 10:09:18;;;;;;;1999.90;999.90;;;;;;;-144.65;100.00;64500.88;5030290;28;21152;-73
2022/09/08 10:12:11;;;;;;;1999.90;999.90;;;;;;;-144.65;100.00;64500.88;5011108;28;20029;-73
2022/09/08 10:14:54;;;;;;;1999.90;999.90;;;;;;;-144.65;100.00;64500.88;5011167;28;20084;-74
2022/09/08 10:18:09;;;;;;;1999.90;999.90;;;;;;;-144.65;100.00;64500.88;5011302;28;20033;-72
2022/09/08 10:20:53;;;;;;;1999.90;999.90;;;;;;;-144.65;100.00;64500.88;5012445;28;20116;-72
2022/09/08 10:23:22;;;;;;;1999.90;999.90;;;;;;;-144.65;100.00;64500.88;5012986;28;20055;-73
2022/09/08 10:26:05;;;;;;;1999.90;999.90;;;;;;;-144.65;100.00;64500.88;5011477;28;20071;-74
2022/09/08 10:29:00;;;;;;;1999.90;999.90;;;;;;;-144.65;100.00;64500.88;5010759;28;20100;-74
2022/09/08 10:31:38;;;;;;;1999.90;999.90;;;;;;;-144.65;100.00;64500.88;4994321;28;20060;-74
2022/09/08 10:34:32;;;;;;;1999.90;999.90;;;;;;;-144.65;100.00;64500.88;5030014;28;20029;-74
2022/09/08 10:37:42;;;;;;;1999.90;999.90;;;;;;;-144.65;100.00;64500.88;5017651;28;20025;-75
2022/09/08 10:40:07;;;;;;;1999.90;999.90;;;;;;;-144.65;100.00;64500.88;5006535;28;20048;-76
2022/09/08 10:42:44;;;;;;;1999.90;999.90;;;;;;;-144.65;100.00;64500.88;5029914;28;20029;-75
2022/09/08 10:45:28;;;;;;;1999.90;999.90;;;;;;;-144.65;100.00;64500.88;5031938;28;20273;-74
2022/09/08 10:48:11;;;;;;;1999.90;999.90;;;;;;;-144.65;100.00;64500.88;5030564;28;20040;-75
2022/09/08 10:50:48;;;;;;;1999.90;999.90;;;;;;;-144.65;100.00;64500.88;5013860;28;20057;-76
2022/09/08 10:53:34;;;;;;;1999.90;999.90;;;;;;;-144.65;100.00;64500.88;5031934;28;20041;-76
2022/09/08 10:55:59;;;;;;;;;;;;;;;-144.65;100.00;64500.88;5033356;28;20021;-75
2022/09/08 10:59:00;;;;;;;1999.90;999.90;;;;;;;-144.65;100.00;64500.88;5032389;28;20385;-75
2022/09/08 11:01:43;;;;;;;1999.90;999.90;;;;;;;-144.65;100.00;64500.88;5014301;28;20478;-75
2022/09/08 11:04:46;;;;;;;1999.90;999.90;;;;;;;-144.65;100.00;64500.88;5034199;28;20367;-75
2022/09/08 11:07:40;;;;;;;1999.90;999.90;;;;;;;-144.65;100.00;64500.88;5013637;28;20034;-73